Weather observations for the past three days for
Wahoo
Imperial (Metric)
Date Time (cdt) Wind (mph) Vis. (mi.) Weather Sky Cond. Temperature (ºF) Relative Humidity Wind Chill (°F) Heat Index (°F) Pressure Precipitation (in)
Air Dwpt 6 hour altimeter (in) sea level (mb) 1 hr 3 hr 6 hr
Max. Min.
07 03:15 SW 8 10.00 Fair CLR 46.9 36.5 67% 44 29.93 0.0
07 02:55 SW 7 10.00 Fair CLR 47.3 35.8 64% 44 29.94 0.0
07 02:35 SW 7 10.00 Fair CLR 47.3 35.2 63% 44 29.95 0.0
07 02:15 SW 8 10.00 Fair CLR 47.3 34.5 61% 44 29.95 0.0
07 01:55 SW 7 10.00 Fair CLR 46.8 33.8 61% 44 29.96 0.0
07 01:35 SW 7 10.00 Fair CLR 46.8 32.9 59% 44 29.97 0.0
07 01:15 SW 6 10.00 Fair CLR 46.4 31.5 56% 44 29.97 0.0
07 00:55 W 7 10.00 Fair CLR 46.4 30.7 61.7 44.1 55% 43 29.98 0.0
07 00:35 W 6 10.00 Fair CLR 45.9 27.5 49% 43 29.98 0.0
07 00:15 Calm 10.00 Fair CLR 46 27.3 48% 29.98 0.0
06 23:55 Calm 10.00 Partly Cloudy SCT100 47.3 25.5 43% 29.98 0.0
06 23:35 Calm 10.00 Mostly Cloudy BKN110 49.3 26.6 41% 29.99 0.0
06 23:15 Calm 10.00 Overcast OVC110 45.5 26.4 47% 29.99 0.0
06 22:55 SW 3 10.00 Mostly Cloudy BKN110 44.6 25.3 47% 29.99 0.0
06 22:35 S 3 10.00 Partly Cloudy SCT110 47.1 23.7 40% 30 0.0
06 22:15 Calm 10.00 Fair CLR 48 21.7 35% 30 0.0
06 21:55 Calm 10.00 Fair CLR 49.1 21.7 34% 30 0.0
06 21:35 Calm 10.00 Fair CLR 51.3 22.1 32% 30 0.0
06 21:15 Calm 10.00 Fair CLR 53.2 21.4 29% 29.99 0.0
06 20:35 Calm 10.00 Partly Cloudy SCT110 54.7 23.5 30% 29.99 0.0
06 20:15 Calm 10.00 Mostly Cloudy BKN100 55.9 23 28% 29.99 0.0
06 19:55 W 3 10.00 Mostly Cloudy BKN100 56.8 22.5 26% 29.99 0.0
06 19:35 W 8 10.00 Mostly Cloudy BKN100 59 21.2 23% 29.99 0.0
06 19:15 W 13 10.00 Mostly Cloudy BKN100 61.5 17.8 18% 29.99 0.0
06 18:55 NW 8 10.00 Mostly Cloudy BKN100 60.6 17.2 63.3 56.8 18% 30 0.0
06 18:35 NW 8 10.00 Partly Cloudy SCT100 60.6 17.8 19% 30 0.0
06 18:15 NW 12 10.00 Mostly Cloudy BKN100 61 18.1 19% 30.01 0.0
06 17:55 NW 14 G 18 10.00 Mostly Cloudy BKN100 63.1 17.2 17% 30.01 0.0
06 17:35 NW 7 10.00 Partly Cloudy SCT100 SCT120 61.7 14.9 16% 30.01 0.0
06 17:15 NW 13 G 16 10.00 Partly Cloudy SCT090 60.4 14.9 17% 30.02 0.0
06 16:55 NW 13 G 16 10.00 Partly Cloudy SCT090 62.4 15.8 16% 30.02 0.0
06 16:35 NW 13 G 20 10.00 Mostly Cloudy SCT090 BKN120 59.5 15.3 18% 30.03 0.0
06 16:15 NW 15 G 21 10.00 Mostly Cloudy BKN090 62.4 16 16% 30.04 0.0
06 15:55 NW 12 G 18 5.00 Mostly Cloudy with Haze BKN090 60.3 16.2 18% 30.05 0.0
06 15:35 NW 12 G 21 10.00 Partly Cloudy SCT090 61.2 15.6 17% 30.06 0.0
06 15:15 NW 13 10.00 Mostly Cloudy BKN090 60.1 16.2 18% 30.06 0.0
06 14:55 NW 16 G 21 10.00 Mostly Cloudy BKN090 60.1 14.7 17% 30.06 0.0
06 14:35 W 16 G 23 10.00 Partly Cloudy SCT090 62.1 16.2 17% 30.07 0.0
06 14:15 N 10 G 29 10.00 Partly Cloudy SCT090 58.8 16.5 19% 30.07 0.0
06 13:55 W 6 G 12 10.00 Partly Cloudy SCT090 59.4 17.2 19% 30.07 0.0
06 13:35 NW 14 G 18 10.00 Mostly Cloudy BKN080 59.2 19 21% 30.08 0.0
06 13:15 NW 6 G 18 10.00 Partly Cloudy SCT080 58.8 19.2 21% 30.09 0.0
06 12:55 W 5 G 23 10.00 Partly Cloudy SCT080 58.3 18.5 58.8 36.7 21% 30.1 0.0
06 12:35 W 9 G 17 10.00 Mostly Cloudy BKN080 BKN100 56.5 18.5 23% 30.1 0.0
06 12:15 NW 10 10.00 Mostly Cloudy BKN080 BKN100 55.9 19.4 24% 30.1 0.0
06 11:55 NW 9 G 23 10.00 Partly Cloudy SCT070 SCT085 54.7 19.8 25% 30.11 0.0
06 11:35 NW 13 G 17 10.00 Partly Cloudy SCT070 55.2 20.7 26% 30.11 0.0
06 10:55 W 8 10.00 Partly Cloudy SCT070 53.6 20.5 27% 30.11 0.0
06 10:35 W 7 G 16 10.00 Partly Cloudy SCT070 54 21.4 28% 30.11 0.0
06 10:15 NW 10 G 17 7.00 Fair CLR 52 22.1 31% 30.11 0.0
06 09:15 W 3 10.00 Fair CLR 50 23.7 36% 30.11 0.0
06 08:55 NW 5 10.00 Fair CLR 48.2 24.6 40% 47 30.11 0.0
06 08:35 NW 5 10.00 Fair CLR 46.2 25 43% 45 30.1 0.0
06 08:15 N 8 10.00 Fair CLR 45.5 25.7 46% 42 30.1 0.0
06 07:55 NW 7 10.00 Fair CLR 43.7 26.1 50% 40 30.09 0.0
06 07:35 NW 6 10.00 Fair CLR 41.2 26.6 56% 38 30.09 0.0
06 07:15 NW 3 10.00 Fair CLR 39.2 27.5 63% 30.08 0.0
06 06:55 NW 5 10.00 Fair CLR 36.5 25.7 44.6 34.7 65% 33 30.07 0.0
06 06:35 NW 6 10.00 Fair CLR 34.9 24.1 65% 30 30.06 0.0
06 06:15 NW 6 10.00 Fair CLR 35.6 23.7 62% 31 30.06 0.0
06 05:55 NW 6 10.00 Fair CLR 36.5 23.9 60% 32 30.06 0.0
06 05:35 NW 6 10.00 Fair CLR 36 24.4 63% 32 30.06 0.0
06 05:15 NW 7 10.00 Fair CLR 37.9 24.8 59% 33 30.06 0.0
06 04:55 NW 7 10.00 Fair CLR 37.8 25.7 62% 33 30.05 0.0
06 04:35 NW 7 10.00 Fair CLR 37.9 26.1 62% 33 30.05 0.0
06 04:15 NW 7 10.00 Fair CLR 38.7 25.7 60% 34 30.04 0.0
06 03:55 NW 6 10.00 Fair CLR 39.4 25.7 58% 36 30.03 0.0
06 03:35 NW 5 10.00 Fair CLR 41.2 25.7 54% 39 30.02 0.0
06 03:15 NW 6 10.00 Fair CLR 41.4 27.3 57% 38 30.02 0.0
06 02:55 NW 6 10.00 Fair CLR 42.4 27.1 55% 39 30.02 0.0
06 02:35 NW 6 10.00 Fair CLR 43 27.1 54% 40 30.02 0.0
06 02:15 NW 5 10.00 Fair CLR 43 27.1 54% 41 30.02 0.0
06 01:55 N 5 10.00 Fair CLR 43.3 26.8 52% 41 30.01 0.0
06 01:35 N 6 10.00 Fair CLR 44.6 25.7 48% 42 30.01 0.0
06 01:15 N 5 10.00 Fair CLR 44.2 26.6 50% 42 30.01 0.0
06 00:55 NW 5 10.00 Fair CLR 44.8 25.7 55.6 44.8 47% 43 30.01 0.0
06 00:35 N 5 10.00 Fair CLR 45.1 25.5 46% 43 30.01 0.0
06 00:15 NW 5 10.00 Fair CLR 45.3 25.2 45% 43 30 0.0
05 23:35 NW 6 10.00 Fair CLR 46.6 26.1 45% 44 29.99 0.0
05 23:15 NW 5 10.00 Fair CLR 47.1 25.3 43% 46 29.99 0.0
05 22:55 NW 5 10.00 Fair CLR 47.5 24.6 41% 46 29.99 0.0
05 22:35 N 3 10.00 Fair CLR 47.7 23.7 39% 29.98 0.0
05 22:15 N 5 10.00 Fair CLR 48.2 23.5 38% 47 29.98 0.0
05 21:55 N 7 10.00 Fair CLR 49.1 23 36% 47 29.97 0.0
05 21:35 N 8 10.00 Fair CLR 50.4 21.9 33% 29.96 0.0
05 21:15 N 12 10.00 Partly Cloudy SCT120 51.3 20.8 30% 29.95 0.0
05 20:55 N 13 10.00 Mostly Cloudy BKN120 52 20.3 29% 29.94 0.0
05 20:35 N 14 10.00 Overcast OVC120 52.7 20.3 28% 29.94 0.0
05 20:15 N 15 10.00 Mostly Cloudy BKN120 53.4 20.5 27% 29.93 0.0
05 19:55 N 15 10.00 Mostly Cloudy BKN120 54 20.5 27% 29.92 0.0
05 19:35 N 14 10.00 Partly Cloudy SCT120 54.7 20.8 27% 29.92 0.0
05 19:15 N 14 10.00 Fair CLR 55.4 21.2 26% 29.92 0.0
05 18:55 N 16 10.00 Fair CLR 55.8 21 60.3 55.8 26% 29.92 0.0
05 18:35 N 16 10.00 Fair CLR 55.9 19.9 24% 29.91 0.0
05 18:15 N 20 G 25 10.00 Partly Cloudy SCT120 56.8 19.9 24% 29.9 0.0
05 17:55 N 21 10.00 Partly Cloudy and Breezy SCT120 57.4 20.5 24% 29.9 0.0
05 17:35 NW 16 G 20 10.00 Fair CLR 59 20.5 22% 29.9 0.0
05 17:15 NW 16 G 24 10.00 Partly Cloudy SCT080 59.5 20.3 22% 29.89 0.0
05 16:55 NW 16 G 23 10.00 Fair CLR 59.4 21 23% 29.89 0.0
05 16:35 NW 16 10.00 Fair CLR 59 22.6 25% 29.9 0.0
05 16:15 NW 15 G 22 10.00 Partly Cloudy SCT075 58.6 23 25% 29.91 0.0
05 15:35 NW 13 G 25 10.00 Partly Cloudy SCT070 59 23.7 26% 29.92 0.0
05 15:15 NW 12 10.00 Partly Cloudy SCT070 SCT085 58.6 24.1 26% 29.92 0.0
05 14:55 N 9 G 21 10.00 Mostly Cloudy BKN070 BKN085 59.7 23.7 25% 29.93 0.0
05 14:35 N 14 G 21 10.00 Mostly Cloudy BKN070 59.4 23.9 26% 29.93 0.0
05 14:15 N 9 G 20 10.00 Partly Cloudy SCT070 58.5 24.8 27% 29.93 0.0
05 13:55 NW 13 G 23 10.00 Partly Cloudy SCT070 57.2 25 29% 29.94 0.0
05 13:35 NW 15 G 21 10.00 Partly Cloudy SCT070 58.6 25.2 28% 29.94 0.0
05 13:15 W 9 G 18 10.00 Mostly Cloudy BKN060 57.9 26.2 30% 29.95 0.0
05 12:55 NW 6 G 21 10.00 Mostly Cloudy BKN060 57.9 30 58.1 45.7 35% 29.95 0.0
05 12:35 NW 10 10.00 Partly Cloudy SCT060 SCT110 56.3 30.7 38% 29.95 0.0
05 12:15 NW 13 10.00 Fair CLR 55.8 30.2 38% 29.95 0.0
05 11:55 W 7 10.00 Partly Cloudy SCT090 54 32 43% 29.96 0.0
05 11:35 NW 9 10.00 Fair CLR 52.9 35.6 52% 29.97 0.0
05 11:15 NW 9 10.00 Partly Cloudy SCT120 51.8 35.4 54% 29.96 0.0
05 10:55 N 10 10.00 Mostly Cloudy BKN120 50.9 36 57% 29.95 0.0
05 10:15 N 9 10.00 Mostly Cloudy BKN120 49.1 37.2 64% 46 29.94 0.0
05 09:55 N 9 10.00 Overcast OVC120 48.2 35.2 61% 45 29.94 0.0
05 09:35 NW 8 10.00 Overcast OVC120 48.2 35.8 62% 45 29.93 0.0
05 09:15 N 8 10.00 Mostly Cloudy BKN120 47.8 34.9 61% 45 29.94 0.0
05 08:55 N 7 10.00 Overcast OVC110 47.5 36.9 67% 45 29.93 0.0
05 08:35 N 8 10.00 Overcast OVC110 47.3 37.4 69% 44 29.92 0.0
05 08:15 NW 7 10.00 Overcast OVC110 47.3 36.3 66% 44 29.92 0.0
05 07:55 NW 6 10.00 Overcast OVC110 46.9 37.6 70% 45 29.91 0.0
05 07:35 NW 6 10.00 Overcast OVC110 46.6 37.2 70% 44 29.9 0.0
05 07:15 NW 6 10.00 Mostly Cloudy BKN120 46.4 37.9 72% 44 29.88 0.0
05 06:55 NW 6 10.00 Partly Cloudy SCT120 45.5 39 49.8 45.5 78% 43 29.86 0.0 0.01
05 06:35 N 6 10.00 Fair CLR 45.9 38.5 76% 43 29.85 0.0
05 06:15 N 6 10.00 Fair CLR 46.4 39.2 76% 44 29.85 0.0
05 05:55 N 5 10.00 Fair CLR 45.5 40.5 83% 44 29.85 0.0
05 05:35 N 5 10.00 Fair CLR 45.5 40.1 81% 44 29.86 0.0
05 05:15 N 6 10.00 Fair CLR 46.2 40.5 80% 44 29.86 0.0
05 04:55 N 6 10.00 Fair CLR 47.3 40.1 76% 45 29.86 0.0
05 04:35 NW 7 10.00 Fair CLR 47.3 41.2 79% 44 29.86 0.0
05 04:15 NW 6 10.00 Fair CLR 47.8 41.2 78% 46 29.85 0.0
05 03:55 NW 7 10.00 Partly Cloudy SCT120 47.7 42.1 81% 45 29.83 0.0 0.01
05 03:35 NW 6 10.00 Fair CLR 48.7 43 81% 47 29.83 0.0
05 03:15 NW 5 10.00 Partly Cloudy SCT120 49.1 43.7 82% 48 29.83 0.0
05 02:55 W 7 10.00 Mostly Cloudy BKN110 48.7 44.2 85% 46 29.83 0.0
05 02:35 W 3 10.00 Mostly Cloudy SCT060 SCT075 BKN100 49.1 44.4 84% 29.82 0.0
05 02:15 W 5 10.00 Light Rain SCT060 SCT075 OVC090 49.5 43.3 80% 48 29.82 0.0
05 01:55 Calm 10.00 Overcast OVC090 48.6 43.9 84% 29.82 0.0 0.01
05 01:35 Calm 10.00 Overcast SCT070 OVC090 48.6 44.4 86% 29.81 0.0 0.01
05 01:15 N 5 10.00 Overcast BKN065 OVC100 49.5 41.9 75% 48 29.8 0.0
05 00:35 Calm 10.00 Light Rain SCT080 OVC090 49.1 42.8 79% 29.82 0.0
05 00:15 N 5 10.00 Overcast OVC090 49.1 42.1 77% 48 29.82 0.0
04 23:55 N 7 10.00 Light Rain SCT050 SCT060 OVC090 49.3 41.9 76% 47 29.81 0.0
04 23:15 N 13 10.00 Light Rain SCT070 OVC080 51.4 38.5 61% 29.82 0.0
04 22:55 N 15 10.00 Light Rain BKN080 OVC110 54.9 32 42% 29.84 0.0
04 22:35 N 15 10.00 Overcast OVC110 55.8 30 37% 29.82 0.0
04 22:15 N 17 G 26 10.00 Partly Cloudy SCT120 55.9 29.3 36% 29.8 0.0
04 21:55 N 20 G 24 10.00 Partly Cloudy SCT120 56.3 28.4 34% 29.79 0.0
04 21:35 N 22 G 28 10.00 Partly Cloudy and Breezy SCT120 56.3 29.1 35% 29.78 0.0
04 21:15 N 20 G 29 10.00 Fair CLR 56.5 28.9 35% 29.77 0.0
04 20:55 N 24 G 33 10.00 Fair and Breezy CLR 58.1 29.1 33% 29.76 0.0
04 20:35 N 26 G 32 10.00 Fair and Windy CLR 58.3 28.4 32% 29.75 0.0
04 20:15 N 23 G 32 10.00 Partly Cloudy and Breezy SCT120 60.1 28.6 30% 29.73 0.0
04 19:55 N 28 G 35 10.00 Partly Cloudy and Windy SCT120 62.1 28 28% 29.72 0.0
04 19:35 N 28 G 35 10.00 Fair and Windy CLR 63.3 27.5 26% 29.72 0.0
04 19:15 N 29 G 32 10.00 Fair and Windy CLR 66 28.4 24% 29.71 0.0
04 18:35 N 21 G 29 10.00 Fair and Breezy CLR 70.2 29.3 22% 29.69 0.0
04 18:15 N 24 G 32 10.00 Fair and Breezy CLR 71.8 29.5 21% 29.69 0.0
04 17:55 N 22 G 29 10.00 Fair and Breezy CLR 72.7 29.7 20% 29.68 0.0
04 17:35 N 23 G 36 10.00 Fair and Breezy CLR 74.5 29.7 19% 29.66 0.0
04 17:15 N 28 G 33 10.00 Fair and Windy CLR 75.6 30.2 19% 76 29.65 0.0
04 16:55 N 26 G 33 10.00 Fair and Windy CLR 77 29.7 18% 77 29.64 0.0
04 16:35 N 23 G 30 10.00 Fair and Breezy CLR 77.7 29.5 17% 77 29.63 0.0
04 16:15 N 21 G 30 10.00 Fair and Breezy CLR 77.4 30.4 18% 77 29.63 0.0
04 15:55 N 17 G 28 10.00 Fair CLR 78.4 30.2 17% 77 29.63 0.0
04 15:35 N 17 G 26 10.00 Fair CLR 79.2 31.5 18% 78 29.63 0.0
04 14:55 N 20 G 26 10.00 Fair CLR 79.5 35.2 20% 78 29.62 0.0
04 14:35 N 21 G 29 10.00 Fair and Breezy CLR 79.5 36.5 21% 78 29.62 0.0
04 14:15 N 16 G 26 10.00 Fair CLR 79.5 37.9 22% 78 29.62 0.0
04 13:55 N 18 G 28 10.00 Fair CLR 80.4 39.4 23% 79 29.62 0.0
04 13:35 NW 20 G 28 10.00 Fair CLR 80.2 37.9 22% 79 29.61 0.0
04 13:15 NW 18 G 32 10.00 Fair CLR 81.7 35.8 19% 80 29.6 0.0
04 12:55 NW 22 G 26 10.00 Fair and Breezy CLR 81.5 34.9 83.1 45.1 19% 79 29.6 0.0
04 12:35 NW 18 G 23 10.00 Fair CLR 82.9 36.3 19% 80 29.6 0.0
04 12:15 NW 17 G 23 10.00 Fair CLR 82 34.3 18% 80 29.6 0.0
04 11:55 NW 17 G 29 10.00 Fair CLR 80.6 35.4 20% 79 29.61 0.0
04 11:35 NW 18 G 24 10.00 Fair CLR 81.9 34.2 18% 80 29.6 0.0
04 11:15 W 15 10.00 Fair CLR 80.1 35.2 20% 79 29.6 0.0
04 10:55 W 16 G 21 10.00 Fair CLR 77.9 36.7 23% 78 29.6 0.0
04 10:35 W 12 G 16 10.00 Fair CLR 76.1 37.9 25% 77 29.6 0.0
04 10:15 W 12 10.00 Fair CLR 74.5 38.3 27% 29.6 0.0
04 09:55 W 9 10.00 Fair CLR 72.1 38.3 29% 29.6 0.0
04 09:35 W 8 10.00 Fair CLR 70.2 37 30% 29.61 0.0
04 09:15 W 5 10.00 Fair CLR 68 37.8 33% 29.62 0.0
04 08:55 NW 6 10.00 Fair CLR 65.3 39.4 39% 29.63 0.0
04 08:35 NW 7 10.00 Fair CLR 61.7 40.1 45% 29.63 0.0
04 08:15 NW 9 10.00 Fair CLR 58.3 40.1 51% 29.63 0.0
04 07:55 NW 8 10.00 Fair CLR 55.2 39.7 56% 29.63 0.0
04 07:35 N 6 10.00 Fair CLR 51.4 40.1 65% 29.63 0.0
04 07:15 N 8 10.00 Fair CLR 48.2 39.2 71% 45 29.62 0.0
04 06:55 N 3 10.00 Fair CLR 44.8 37.6 52 41.9 76% 29.61 0.0
04 06:35 N 5 10.00 Fair CLR 43.3 36.3 76% 41 29.61 0.0
04 06:15 N 3 10.00 Fair CLR 43.3 36.5 77% 29.61 0.0
04 05:55 N 3 10.00 Fair CLR 46.6 36.5 68% 29.61 0.0
04 05:35 Calm 10.00 Fair CLR 46.9 36.9 68% 29.62 0.0
04 05:15 N 5 10.00 Fair CLR 43.9 37.2 77% 42 29.63 0.0
04 04:55 Calm 10.00 Fair CLR 48.7 36.5 63% 29.62 0.0
04 04:35 Calm 10.00 Fair CLR 45.5 35.8 69% 29.63 0.0
04 04:15 Calm 10.00 Fair CLR 48.9 36.3 62% 29.63 0.0
04 03:55 Calm 10.00 Fair CLR 47.7 36.9 66% 29.63 0.0
04 03:35 SE 3 10.00 Fair CLR 47.8 36.7 65% 29.64 0.0
Date Time (cdt) Wind (mph) Vis. (mi.) Weather Sky Cond. Air Dwpt Max. Min. Relative Humidity Wind Chill (°F) Heat Index (°F) altimeter (in) sea level (mb) 1 hr 3 hr 6 hr
6 hour
Temperature (ºF) Pressure Precipitation (in)